Terminal Aerodrome Forecast
Issued by NWS

Home | Current Version | Previous Version | Text Only | Print | Product List | Glossary On
Versions: 1 2 3 4 5 6 7 8 9 10 11 12 13 14 15 16 17 18 19 20 21 22 23 24 25 26 27 28
787
FTUS41 KPBZ 302330
TAFAGC
TAF
KAGC 302330Z 0100/0124 VRB04KT 5SM -RA OVC050
     FM010500 14009KT 3SM -RA OVC015
     FM010700 15008KT 4SM -RA BR OVC007
     FM011500 23006KT P6SM BKN015=

USA.gov is the U.S. government's official web portal to all federal, state and local government web resources and services.